sensor_id;sensor_type;location;lat;lon;timestamp;pressure;altitude;pressure_sealevel;temperature;humidity
77469;BME280;68840;50.272;12.818;2023-05-07T00:00:07;96199;;;9.8;60.6
77469;BME280;68840;50.272;12.818;2023-05-07T00:02:06;96198;;;9.8;60.3
77469;BME280;68840;50.272;12.818;2023-05-07T00:04:07;96198;;;9.7;61.7
77469;BME280;68840;50.272;12.818;2023-05-07T00:06:06;96199;;;9.7;62.4
77469;BME280;68840;50.272;12.818;2023-05-07T00:08:05;96198;;;9.7;63.5
77469;BME280;68840;50.272;12.818;2023-05-07T00:10:07;96195;;;9.7;62.3
77469;BME280;68840;50.272;12.818;2023-05-07T00:12:06;96194;;;9.7;62.7
77469;BME280;68840;50.272;12.818;2023-05-07T00:14:06;96194;;;9.7;62.1
77469;BME280;68840;50.272;12.818;2023-05-07T00:16:05;96193;;;9.6;62.0
77469;BME280;68840;50.272;12.818;2023-05-07T00:18:05;96191;;;9.6;61.5
77469;BME280;68840;50.272;12.818;2023-05-07T00:20:07;96189;;;9.6;62.0
77469;BME280;68840;50.272;12.818;2023-05-07T00:22:06;96191;;;9.6;61.3
77469;BME280;68840;50.272;12.818;2023-05-07T00:24:06;96193;;;9.6;62.5
77469;BME280;68840;50.272;12.818;2023-05-07T00:26:05;96194;;;9.5;62.2
77469;BME280;68840;50.272;12.818;2023-05-07T00:28:05;96197;;;9.5;61.8
77469;BME280;68840;50.272;12.818;2023-05-07T00:30:08;96199;;;9.5;65.1
77469;BME280;68840;50.272;12.818;2023-05-07T00:32:05;96203;;;9.5;64.5
77469;BME280;68840;50.272;12.818;2023-05-07T00:34:05;96206;;;9.5;67.1
77469;BME280;68840;50.272;12.818;2023-05-07T00:36:06;96208;;;9.5;64.6
77469;BME280;68840;50.272;12.818;2023-05-07T00:38:06;96207;;;9.5;64.4
77469;BME280;68840;50.272;12.818;2023-05-07T00:40:07;96205;;;9.5;63.8
77469;BME280;68840;50.272;12.818;2023-05-07T00:42:05;96204;;;9.5;64.9
77469;BME280;68840;50.272;12.818;2023-05-07T00:44:06;96204;;;9.4;66.6
77469;BME280;68840;50.272;12.818;2023-05-07T00:46:05;96202;;;9.4;69.1
77469;BME280;68840;50.272;12.818;2023-05-07T00:48:05;96201;;;9.5;68.7
77469;BME280;68840;50.272;12.818;2023-05-07T00:50:07;96198;;;9.5;64.6
77469;BME280;68840;50.272;12.818;2023-05-07T00:52:07;96195;;;9.5;62.1
77469;BME280;68840;50.272;12.818;2023-05-07T00:54:05;96195;;;9.4;62.4
77469;BME280;68840;50.272;12.818;2023-05-07T00:56:06;96196;;;9.4;62.1
77469;BME280;68840;50.272;12.818;2023-05-07T00:58:06;96200;;;9.4;62.3
77469;BME280;68840;50.272;12.818;2023-05-07T01:00:09;96204;;;9.3;62.2
77469;BME280;68840;50.272;12.818;2023-05-07T01:02:06;96205;;;9.3;62.4
77469;BME280;68840;50.272;12.818;2023-05-07T01:04:05;96203;;;9.2;61.6
77469;BME280;68840;50.272;12.818;2023-05-07T01:06:06;96201;;;9.2;62.4
77469;BME280;68840;50.272;12.818;2023-05-07T01:08:06;96199;;;9.2;62.8
77469;BME280;68840;50.272;12.818;2023-05-07T01:10:07;96199;;;9.2;61.6
77469;BME280;68840;50.272;12.818;2023-05-07T01:12:07;96202;;;9.1;61.1
77469;BME280;68840;50.272;12.818;2023-05-07T01:14:07;96203;;;9.1;60.9
77469;BME280;68840;50.272;12.818;2023-05-07T01:16:06;96204;;;9.1;61.0
77469;BME280;68840;50.272;12.818;2023-05-07T01:18:06;96203;;;9.1;61.0
77469;BME280;68840;50.272;12.818;2023-05-07T01:20:07;96203;;;9.0;62.7
77469;BME280;68840;50.272;12.818;2023-05-07T01:22:09;96201;;;9.0;63.3
77469;BME280;68840;50.272;12.818;2023-05-07T01:24:06;96199;;;9.0;63.6
77469;BME280;68840;50.272;12.818;2023-05-07T01:26:05;96198;;;9.0;62.6
77469;BME280;68840;50.272;12.818;2023-05-07T01:28:06;96200;;;9.0;62.8
77469;BME280;68840;50.272;12.818;2023-05-07T01:30:07;96201;;;9.0;63.8
77469;BME280;68840;50.272;12.818;2023-05-07T01:32:06;96204;;;9.0;66.8
77469;BME280;68840;50.272;12.818;2023-05-07T01:34:07;96205;;;8.9;67.8
77469;BME280;68840;50.272;12.818;2023-05-07T01:36:08;96205;;;8.9;65.2
77469;BME280;68840;50.272;12.818;2023-05-07T01:38:07;96203;;;8.9;66.3
77469;BME280;68840;50.272;12.818;2023-05-07T01:40:07;96202;;;8.9;67.6
77469;BME280;68840;50.272;12.818;2023-05-07T01:42:06;96204;;;8.9;67.5
77469;BME280;68840;50.272;12.818;2023-05-07T01:44:06;96203;;;8.9;66.4
77469;BME280;68840;50.272;12.818;2023-05-07T01:46:06;96200;;;8.9;65.9
77469;BME280;68840;50.272;12.818;2023-05-07T01:48:06;96195;;;8.9;66.2
77469;BME280;68840;50.272;12.818;2023-05-07T01:50:08;96195;;;8.9;66.3
77469;BME280;68840;50.272;12.818;2023-05-07T01:52:05;96198;;;8.9;65.7
77469;BME280;68840;50.272;12.818;2023-05-07T01:54:06;96200;;;8.9;65.1
77469;BME280;68840;50.272;12.818;2023-05-07T01:56:06;96204;;;8.9;65.9
77469;BME280;68840;50.272;12.818;2023-05-07T01:58:05;96210;;;8.9;66.5
77469;BME280;68840;50.272;12.818;2023-05-07T02:00:06;96216;;;8.9;66.7
77469;BME280;68840;50.272;12.818;2023-05-07T02:02:05;96220;;;8.9;69.5
77469;BME280;68840;50.272;12.818;2023-05-07T02:04:05;96217;;;8.9;70.1
77469;BME280;68840;50.272;12.818;2023-05-07T02:06:06;96210;;;8.9;70.8
77469;BME280;68840;50.272;12.818;2023-05-07T02:08:05;96208;;;9.0;69.9
77469;BME280;68840;50.272;12.818;2023-05-07T02:10:06;96209;;;9.0;69.8
77469;BME280;68840;50.272;12.818;2023-05-07T02:12:05;96213;;;9.0;68.8
77469;BME280;68840;50.272;12.818;2023-05-07T02:14:06;96215;;;9.1;68.5
77469;BME280;68840;50.272;12.818;2023-05-07T02:16:06;96215;;;9.1;68.6
77469;BME280;68840;50.272;12.818;2023-05-07T02:18:07;96216;;;9.1;71.0
77469;BME280;68840;50.272;12.818;2023-05-07T02:20:13;96217;;;9.1;70.2
77469;BME280;68840;50.272;12.818;2023-05-07T02:22:06;96217;;;9.2;70.7
77469;BME280;68840;50.272;12.818;2023-05-07T02:24:05;96217;;;9.2;70.8
77469;BME280;68840;50.272;12.818;2023-05-07T02:26:05;96218;;;9.2;70.7
77469;BME280;68840;50.272;12.818;2023-05-07T02:28:05;96218;;;9.2;71.0
77469;BME280;68840;50.272;12.818;2023-05-07T02:30:07;96219;;;9.3;71.7
77469;BME280;68840;50.272;12.818;2023-05-07T02:32:05;96215;;;9.3;71.5
77469;BME280;68840;50.272;12.818;2023-05-07T02:34:06;96214;;;9.3;71.7
77469;BME280;68840;50.272;12.818;2023-05-07T02:36:07;96212;;;9.3;71.7
77469;BME280;68840;50.272;12.818;2023-05-07T02:38:05;96214;;;9.4;71.5
77469;BME280;68840;50.272;12.818;2023-05-07T02:40:06;96218;;;9.4;71.9
77469;BME280;68840;50.272;12.818;2023-05-07T02:42:05;96217;;;9.4;72.2
77469;BME280;68840;50.272;12.818;2023-05-07T02:44:05;96217;;;9.4;72.6
77469;BME280;68840;50.272;12.818;2023-05-07T02:46:07;96216;;;9.4;73.1
77469;BME280;68840;50.272;12.818;2023-05-07T02:48:06;96213;;;9.4;73.1
77469;BME280;68840;50.272;12.818;2023-05-07T02:50:06;96214;;;9.5;73.1
77469;BME280;68840;50.272;12.818;2023-05-07T02:52:06;96215;;;9.5;73.2
77469;BME280;68840;50.272;12.818;2023-05-07T02:54:05;96214;;;9.5;73.2
77469;BME280;68840;50.272;12.818;2023-05-07T02:56:06;96214;;;9.5;73.0
77469;BME280;68840;50.272;12.818;2023-05-07T02:58:05;96214;;;9.6;73.2
77469;BME280;68840;50.272;12.818;2023-05-07T03:00:14;96216;;;9.6;73.3
77469;BME280;68840;50.272;12.818;2023-05-07T03:02:06;96215;;;9.6;73.4
77469;BME280;68840;50.272;12.818;2023-05-07T03:04:06;96212;;;9.7;73.4
77469;BME280;68840;50.272;12.818;2023-05-07T03:06:06;96207;;;9.7;73.3
77469;BME280;68840;50.272;12.818;2023-05-07T03:08:06;96205;;;9.7;73.2
77469;BME280;68840;50.272;12.818;2023-05-07T03:10:06;96204;;;9.7;73.2
77469;BME280;68840;50.272;12.818;2023-05-07T03:12:06;96202;;;9.8;73.2
77469;BME280;68840;50.272;12.818;2023-05-07T03:14:05;96202;;;9.8;73.4
77469;BME280;68840;50.272;12.818;2023-05-07T03:16:06;96206;;;9.8;72.8
77469;BME280;68840;50.272;12.818;2023-05-07T03:18:05;96209;;;9.8;72.9
77469;BME280;68840;50.272;12.818;2023-05-07T03:20:06;96210;;;9.9;72.8
77469;BME280;68840;50.272;12.818;2023-05-07T03:22:05;96210;;;9.9;72.8
77469;BME280;68840;50.272;12.818;2023-05-07T03:24:06;96207;;;9.9;72.9
77469;BME280;68840;50.272;12.818;2023-05-07T03:26:05;96206;;;9.8;73.2
77469;BME280;68840;50.272;12.818;2023-05-07T03:28:05;96207;;;9.9;72.9
77469;BME280;68840;50.272;12.818;2023-05-07T03:30:06;96207;;;9.9;73.1
77469;BME280;68840;50.272;12.818;2023-05-07T03:32:06;96209;;;9.9;73.2
77469;BME280;68840;50.272;12.818;2023-05-07T03:34:05;96209;;;10.0;73.0
77469;BME280;68840;50.272;12.818;2023-05-07T03:36:05;96210;;;10.0;73.1
77469;BME280;68840;50.272;12.818;2023-05-07T03:38:05;96212;;;10.0;73.3
77469;BME280;68840;50.272;12.818;2023-05-07T03:40:08;96217;;;10.0;73.2
77469;BME280;68840;50.272;12.818;2023-05-07T03:42:05;96217;;;10.0;73.3
77469;BME280;68840;50.272;12.818;2023-05-07T03:44:05;96217;;;10.0;73.6
77469;BME280;68840;50.272;12.818;2023-05-07T03:46:06;96217;;;10.0;73.7
77469;BME280;68840;50.272;12.818;2023-05-07T03:48:05;96219;;;10.0;73.7
77469;BME280;68840;50.272;12.818;2023-05-07T03:50:06;96221;;;10.0;73.7
77469;BME280;68840;50.272;12.818;2023-05-07T03:52:05;96224;;;10.1;73.8
77469;BME280;68840;50.272;12.818;2023-05-07T03:54:05;96226;;;10.1;74.0
77469;BME280;68840;50.272;12.818;2023-05-07T03:56:05;96228;;;10.1;74.1
77469;BME280;68840;50.272;12.818;2023-05-07T03:58:05;96227;;;10.1;74.0
77469;BME280;68840;50.272;12.818;2023-05-07T04:00:07;96227;;;10.1;74.0
77469;BME280;68840;50.272;12.818;2023-05-07T04:02:05;96228;;;10.1;73.6
77469;BME280;68840;50.272;12.818;2023-05-07T04:04:05;96228;;;10.1;73.8
77469;BME280;68840;50.272;12.818;2023-05-07T04:06:05;96229;;;10.1;74.2
77469;BME280;68840;50.272;12.818;2023-05-07T04:08:06;96229;;;10.1;74.2
77469;BME280;68840;50.272;12.818;2023-05-07T04:10:06;96229;;;10.1;73.9
77469;BME280;68840;50.272;12.818;2023-05-07T04:12:05;96229;;;10.1;73.8
77469;BME280;68840;50.272;12.818;2023-05-07T04:14:05;96229;;;10.1;74.0
77469;BME280;68840;50.272;12.818;2023-05-07T04:16:06;96229;;;10.1;74.2
77469;BME280;68840;50.272;12.818;2023-05-07T04:18:05;96230;;;10.1;74.1
77469;BME280;68840;50.272;12.818;2023-05-07T04:20:08;96232;;;10.1;73.6
77469;BME280;68840;50.272;12.818;2023-05-07T04:22:05;96236;;;10.1;73.9
77469;BME280;68840;50.272;12.818;2023-05-07T04:24:06;96237;;;10.1;73.7
77469;BME280;68840;50.272;12.818;2023-05-07T04:26:05;96235;;;10.1;73.5
77469;BME280;68840;50.272;12.818;2023-05-07T04:28:05;96232;;;10.1;73.5
77469;BME280;68840;50.272;12.818;2023-05-07T04:30:07;96233;;;10.1;73.8
77469;BME280;68840;50.272;12.818;2023-05-07T04:32:05;96233;;;10.0;73.4
77469;BME280;68840;50.272;12.818;2023-05-07T04:34:06;96230;;;10.0;73.5
77469;BME280;68840;50.272;12.818;2023-05-07T04:36:05;96230;;;10.0;73.4
77469;BME280;68840;50.272;12.818;2023-05-07T04:38:05;96233;;;10.0;72.6
77469;BME280;68840;50.272;12.818;2023-05-07T04:40:06;96236;;;10.0;72.5
77469;BME280;68840;50.272;12.818;2023-05-07T04:42:08;96240;;;10.0;72.7
77469;BME280;68840;50.272;12.818;2023-05-07T04:44:06;96242;;;10.0;72.4
77469;BME280;68840;50.272;12.818;2023-05-07T04:46:05;96242;;;10.0;73.0
77469;BME280;68840;50.272;12.818;2023-05-07T04:48:05;96244;;;10.0;72.1
77469;BME280;68840;50.272;12.818;2023-05-07T04:50:07;96243;;;10.0;72.1
77469;BME280;68840;50.272;12.818;2023-05-07T04:52:06;96241;;;10.0;72.4
77469;BME280;68840;50.272;12.818;2023-05-07T04:54:05;96244;;;10.0;72.4
77469;BME280;68840;50.272;12.818;2023-05-07T04:56:06;96247;;;10.0;72.5
77469;BME280;68840;50.272;12.818;2023-05-07T04:58:05;96246;;;10.0;72.7
77469;BME280;68840;50.272;12.818;2023-05-07T05:00:08;96248;;;10.1;72.4
77469;BME280;68840;50.272;12.818;2023-05-07T05:02:05;96251;;;10.1;72.8
77469;BME280;68840;50.272;12.818;2023-05-07T05:04:05;96253;;;10.1;72.4
77469;BME280;68840;50.272;12.818;2023-05-07T05:06:06;96256;;;10.1;72.8
77469;BME280;68840;50.272;12.818;2023-05-07T05:08:05;96261;;;10.2;72.0
77469;BME280;68840;50.272;12.818;2023-05-07T05:10:06;96265;;;10.2;72.5
77469;BME280;68840;50.272;12.818;2023-05-07T05:12:07;96268;;;10.2;72.9
77469;BME280;68840;50.272;12.818;2023-05-07T05:14:05;96269;;;10.2;72.1
77469;BME280;68840;50.272;12.818;2023-05-07T05:16:05;96267;;;10.3;72.1
77469;BME280;68840;50.272;12.818;2023-05-07T05:18:05;96267;;;10.3;71.7
77469;BME280;68840;50.272;12.818;2023-05-07T05:20:06;96271;;;10.3;71.5
77469;BME280;68840;50.272;12.818;2023-05-07T05:22:05;96272;;;10.4;71.5
77469;BME280;68840;50.272;12.818;2023-05-07T05:24:06;96276;;;10.3;70.9
77469;BME280;68840;50.272;12.818;2023-05-07T05:26:05;96277;;;10.3;71.4
77469;BME280;68840;50.272;12.818;2023-05-07T05:28:06;96278;;;10.4;70.7
77469;BME280;68840;50.272;12.818;2023-05-07T05:30:07;96280;;;10.4;71.2
77469;BME280;68840;50.272;12.818;2023-05-07T05:32:05;96281;;;10.4;71.3
77469;BME280;68840;50.272;12.818;2023-05-07T05:34:05;96284;;;10.4;71.0
77469;BME280;68840;50.272;12.818;2023-05-07T05:36:06;96291;;;10.4;70.9
77469;BME280;68840;50.272;12.818;2023-05-07T05:38:05;96295;;;10.4;70.9
77469;BME280;68840;50.272;12.818;2023-05-07T05:40:06;96299;;;10.4;70.5
77469;BME280;68840;50.272;12.818;2023-05-07T05:42:05;96297;;;10.4;70.3
77469;BME280;68840;50.272;12.818;2023-05-07T05:44:06;96296;;;10.4;71.3
77469;BME280;68840;50.272;12.818;2023-05-07T05:46:06;96298;;;10.5;70.7
77469;BME280;68840;50.272;12.818;2023-05-07T05:48:06;96301;;;10.5;69.9
77469;BME280;68840;50.272;12.818;2023-05-07T05:50:06;96302;;;10.5;70.1
77469;BME280;68840;50.272;12.818;2023-05-07T05:52:05;96301;;;10.5;69.6
77469;BME280;68840;50.272;12.818;2023-05-07T05:54:06;96299;;;10.5;70.2
77469;BME280;68840;50.272;12.818;2023-05-07T05:56:06;96296;;;10.5;71.0
77469;BME280;68840;50.272;12.818;2023-05-07T05:58:05;96297;;;10.6;69.9
77469;BME280;68840;50.272;12.818;2023-05-07T06:00:07;96299;;;10.6;70.0
77469;BME280;68840;50.272;12.818;2023-05-07T06:02:06;96304;;;10.6;70.3
77469;BME280;68840;50.272;12.818;2023-05-07T06:04:05;96307;;;10.6;69.4
77469;BME280;68840;50.272;12.818;2023-05-07T06:06:05;96308;;;10.6;69.1
77469;BME280;68840;50.272;12.818;2023-05-07T06:08:05;96311;;;10.6;69.3
77469;BME280;68840;50.272;12.818;2023-05-07T06:10:07;96313;;;10.6;68.7
77469;BME280;68840;50.272;12.818;2023-05-07T06:12:06;96312;;;10.6;69.6
77469;BME280;68840;50.272;12.818;2023-05-07T06:14:05;96308;;;10.6;69.7
77469;BME280;68840;50.272;12.818;2023-05-07T06:16:06;96306;;;10.7;69.5
77469;BME280;68840;50.272;12.818;2023-05-07T06:18:05;96305;;;10.7;69.5
77469;BME280;68840;50.272;12.818;2023-05-07T06:20:06;96305;;;10.7;68.3
77469;BME280;68840;50.272;12.818;2023-05-07T06:22:05;96304;;;10.7;68.8
77469;BME280;68840;50.272;12.818;2023-05-07T06:24:06;96302;;;10.8;68.6
77469;BME280;68840;50.272;12.818;2023-05-07T06:26:05;96301;;;10.8;68.6
77469;BME280;68840;50.272;12.818;2023-05-07T06:28:06;96298;;;10.9;68.6
77469;BME280;68840;50.272;12.818;2023-05-07T06:30:06;96299;;;11.0;69.7
77469;BME280;68840;50.272;12.818;2023-05-07T06:32:07;96299;;;11.1;68.2
77469;BME280;68840;50.272;12.818;2023-05-07T06:34:06;96297;;;11.2;69.0
77469;BME280;68840;50.272;12.818;2023-05-07T06:36:06;96298;;;11.3;67.3
77469;BME280;68840;50.272;12.818;2023-05-07T06:38:05;96300;;;11.3;66.7
77469;BME280;68840;50.272;12.818;2023-05-07T06:40:06;96300;;;11.3;68.3
77469;BME280;68840;50.272;12.818;2023-05-07T06:42:05;96302;;;11.4;68.8
77469;BME280;68840;50.272;12.818;2023-05-07T06:44:05;96305;;;11.4;67.9
77469;BME280;68840;50.272;12.818;2023-05-07T06:46:05;96307;;;11.5;68.3
77469;BME280;68840;50.272;12.818;2023-05-07T06:48:05;96307;;;11.5;68.6
77469;BME280;68840;50.272;12.818;2023-05-07T06:50:06;96308;;;11.5;67.2
77469;BME280;68840;50.272;12.818;2023-05-07T06:52:05;96310;;;11.5;68.5
77469;BME280;68840;50.272;12.818;2023-05-07T06:54:05;96311;;;11.6;68.6
77469;BME280;68840;50.272;12.818;2023-05-07T06:56:06;96311;;;11.6;68.0
77469;BME280;68840;50.272;12.818;2023-05-07T06:58:05;96309;;;11.6;66.7
77469;BME280;68840;50.272;12.818;2023-05-07T07:00:06;96308;;;11.6;66.5
77469;BME280;68840;50.272;12.818;2023-05-07T07:02:06;96306;;;11.6;67.7
77469;BME280;68840;50.272;12.818;2023-05-07T07:04:06;96306;;;11.7;67.6
77469;BME280;68840;50.272;12.818;2023-05-07T07:06:06;96306;;;11.7;67.8
77469;BME280;68840;50.272;12.818;2023-05-07T07:08:05;96305;;;11.8;68.0
77469;BME280;68840;50.272;12.818;2023-05-07T07:10:06;96307;;;11.8;67.5
77469;BME280;68840;50.272;12.818;2023-05-07T07:12:05;96312;;;11.9;68.2
77469;BME280;68840;50.272;12.818;2023-05-07T07:14:05;96315;;;12.0;67.4
77469;BME280;68840;50.272;12.818;2023-05-07T07:16:06;96318;;;12.1;66.7
77469;BME280;68840;50.272;12.818;2023-05-07T07:18:05;96320;;;12.1;66.2
77469;BME280;68840;50.272;12.818;2023-05-07T07:20:07;96320;;;12.2;64.0
77469;BME280;68840;50.272;12.818;2023-05-07T07:22:05;96321;;;12.2;66.8
77469;BME280;68840;50.272;12.818;2023-05-07T07:24:05;96322;;;12.3;65.9
77469;BME280;68840;50.272;12.818;2023-05-07T07:26:06;96325;;;12.3;63.5
77469;BME280;68840;50.272;12.818;2023-05-07T07:28:06;96327;;;12.3;64.7
77469;BME280;68840;50.272;12.818;2023-05-07T07:30:06;96330;;;12.4;64.4
77469;BME280;68840;50.272;12.818;2023-05-07T07:32:06;96330;;;12.4;63.7
77469;BME280;68840;50.272;12.818;2023-05-07T07:34:05;96330;;;12.4;64.9
77469;BME280;68840;50.272;12.818;2023-05-07T07:36:06;96335;;;12.5;65.3
77469;BME280;68840;50.272;12.818;2023-05-07T07:38:06;96337;;;12.5;64.8
77469;BME280;68840;50.272;12.818;2023-05-07T07:40:06;96339;;;12.6;63.5
77469;BME280;68840;50.272;12.818;2023-05-07T07:42:05;96341;;;12.6;63.1
77469;BME280;68840;50.272;12.818;2023-05-07T07:44:07;96343;;;12.6;63.6
77469;BME280;68840;50.272;12.818;2023-05-07T07:46:06;96344;;;12.6;65.2
77469;BME280;68840;50.272;12.818;2023-05-07T07:48:05;96347;;;12.7;63.9
77469;BME280;68840;50.272;12.818;2023-05-07T07:50:07;96352;;;12.7;64.7
77469;BME280;68840;50.272;12.818;2023-05-07T07:52:05;96355;;;12.7;63.3
77469;BME280;68840;50.272;12.818;2023-05-07T07:54:06;96354;;;12.7;64.8
77469;BME280;68840;50.272;12.818;2023-05-07T07:56:06;96353;;;12.7;65.1
77469;BME280;68840;50.272;12.818;2023-05-07T07:58:05;96351;;;12.8;63.2
77469;BME280;68840;50.272;12.818;2023-05-07T08:00:07;96347;;;12.9;66.3
77469;BME280;68840;50.272;12.818;2023-05-07T08:02:06;96349;;;13.0;65.8
77469;BME280;68840;50.272;12.818;2023-05-07T08:04:06;96348;;;13.2;63.8
77469;BME280;68840;50.272;12.818;2023-05-07T08:06:06;96348;;;13.3;61.5
77469;BME280;68840;50.272;12.818;2023-05-07T08:08:06;96349;;;13.4;60.4
77469;BME280;68840;50.272;12.818;2023-05-07T08:10:06;96349;;;13.4;63.0
77469;BME280;68840;50.272;12.818;2023-05-07T08:12:06;96350;;;13.5;61.4
77469;BME280;68840;50.272;12.818;2023-05-07T08:14:06;96351;;;13.6;61.5
77469;BME280;68840;50.272;12.818;2023-05-07T08:16:06;96347;;;13.7;61.9
77469;BME280;68840;50.272;12.818;2023-05-07T08:18:05;96346;;;13.8;60.5
77469;BME280;68840;50.272;12.818;2023-05-07T08:20:06;96345;;;13.9;60.9
77469;BME280;68840;50.272;12.818;2023-05-07T08:22:05;96344;;;14.0;59.5
77469;BME280;68840;50.272;12.818;2023-05-07T08:24:06;96345;;;14.0;60.7
77469;BME280;68840;50.272;12.818;2023-05-07T08:26:06;96348;;;14.1;60.5
77469;BME280;68840;50.272;12.818;2023-05-07T08:28:05;96347;;;14.2;62.1
77469;BME280;68840;50.272;12.818;2023-05-07T08:30:07;96348;;;14.2;60.9
77469;BME280;68840;50.272;12.818;2023-05-07T08:32:06;96351;;;14.3;61.2
77469;BME280;68840;50.272;12.818;2023-05-07T08:34:06;96351;;;14.3;60.5
77469;BME280;68840;50.272;12.818;2023-05-07T08:36:06;96352;;;14.4;59.5
77469;BME280;68840;50.272;12.818;2023-05-07T08:38:05;96351;;;14.4;59.3
77469;BME280;68840;50.272;12.818;2023-05-07T08:40:07;96346;;;14.4;59.3
77469;BME280;68840;50.272;12.818;2023-05-07T08:42:06;96347;;;14.5;60.2
77469;BME280;68840;50.272;12.818;2023-05-07T08:44:12;96351;;;14.5;60.6
77469;BME280;68840;50.272;12.818;2023-05-07T08:46:06;96355;;;14.6;60.1
77469;BME280;68840;50.272;12.818;2023-05-07T08:48:14;96355;;;14.6;59.0
77469;BME280;68840;50.272;12.818;2023-05-07T08:50:07;96353;;;14.7;58.3
77469;BME280;68840;50.272;12.818;2023-05-07T08:52:05;96350;;;14.7;58.9
77469;BME280;68840;50.272;12.818;2023-05-07T08:54:07;96350;;;14.7;59.8
77469;BME280;68840;50.272;12.818;2023-05-07T08:56:06;96352;;;14.7;58.5
77469;BME280;68840;50.272;12.818;2023-05-07T08:58:05;96350;;;14.7;57.5
77469;BME280;68840;50.272;12.818;2023-05-07T09:00:07;96346;;;14.7;58.0
77469;BME280;68840;50.272;12.818;2023-05-07T09:02:09;96346;;;14.7;57.8
77469;BME280;68840;50.272;12.818;2023-05-07T09:04:07;96343;;;14.7;57.0
77469;BME280;68840;50.272;12.818;2023-05-07T09:06:06;96343;;;14.6;58.9
77469;BME280;68840;50.272;12.818;2023-05-07T09:08:06;96345;;;14.6;58.5
77469;BME280;68840;50.272;12.818;2023-05-07T09:10:07;96346;;;14.6;56.8
77469;BME280;68840;50.272;12.818;2023-05-07T09:12:06;96346;;;14.5;59.4
77469;BME280;68840;50.272;12.818;2023-05-07T09:14:05;96346;;;14.5;58.8
77469;BME280;68840;50.272;12.818;2023-05-07T09:16:13;96347;;;14.6;58.9
77469;BME280;68840;50.272;12.818;2023-05-07T09:18:05;96345;;;14.6;58.2
77469;BME280;68840;50.272;12.818;2023-05-07T09:20:06;96344;;;14.6;60.0
77469;BME280;68840;50.272;12.818;2023-05-07T09:22:07;96345;;;14.7;59.5
77469;BME280;68840;50.272;12.818;2023-05-07T09:24:06;96344;;;14.7;58.3
77469;BME280;68840;50.272;12.818;2023-05-07T09:26:11;96348;;;14.8;57.1
77469;BME280;68840;50.272;12.818;2023-05-07T09:28:07;96351;;;14.8;56.4
77469;BME280;68840;50.272;12.818;2023-05-07T09:30:06;96353;;;14.8;56.8
77469;BME280;68840;50.272;12.818;2023-05-07T09:32:07;96358;;;14.8;56.9
77469;BME280;68840;50.272;12.818;2023-05-07T09:34:05;96358;;;14.8;57.7
77469;BME280;68840;50.272;12.818;2023-05-07T09:36:08;96359;;;14.9;58.6
77469;BME280;68840;50.272;12.818;2023-05-07T09:38:06;96360;;;14.9;57.8
77469;BME280;68840;50.272;12.818;2023-05-07T09:40:07;96362;;;15.0;57.3
77469;BME280;68840;50.272;12.818;2023-05-07T09:42:06;96365;;;15.1;58.4
77469;BME280;68840;50.272;12.818;2023-05-07T09:44:05;96366;;;15.2;57.4
77469;BME280;68840;50.272;12.818;2023-05-07T09:46:08;96367;;;15.2;57.0
77469;BME280;68840;50.272;12.818;2023-05-07T09:48:06;96368;;;15.2;56.1
77469;BME280;68840;50.272;12.818;2023-05-07T09:50:08;96370;;;15.2;56.1
77469;BME280;68840;50.272;12.818;2023-05-07T09:52:08;96372;;;15.1;56.8
77469;BME280;68840;50.272;12.818;2023-05-07T09:54:06;96369;;;15.1;58.1
77469;BME280;68840;50.272;12.818;2023-05-07T09:56:06;96366;;;15.0;57.2
77469;BME280;68840;50.272;12.818;2023-05-07T09:58:06;96365;;;15.0;58.6
77469;BME280;68840;50.272;12.818;2023-05-07T10:00:08;96366;;;15.0;57.2
77469;BME280;68840;50.272;12.818;2023-05-07T10:02:06;96367;;;15.0;60.6
77469;BME280;68840;50.272;12.818;2023-05-07T10:04:08;96368;;;15.1;58.7
77469;BME280;68840;50.272;12.818;2023-05-07T10:06:07;96367;;;15.2;56.6
77469;BME280;68840;50.272;12.818;2023-05-07T10:08:06;96367;;;15.2;56.6
77469;BME280;68840;50.272;12.818;2023-05-07T10:10:07;96367;;;15.3;56.9
77469;BME280;68840;50.272;12.818;2023-05-07T10:12:06;96366;;;15.3;58.1
77469;BME280;68840;50.272;12.818;2023-05-07T10:14:06;96364;;;15.3;57.4
77469;BME280;68840;50.272;12.818;2023-05-07T10:16:06;96364;;;15.3;56.9
77469;BME280;68840;50.272;12.818;2023-05-07T10:18:06;96364;;;15.3;56.8
77469;BME280;68840;50.272;12.818;2023-05-07T10:20:07;96360;;;15.3;56.3
77469;BME280;68840;50.272;12.818;2023-05-07T10:22:07;96360;;;15.3;59.5
77469;BME280;68840;50.272;12.818;2023-05-07T10:24:15;96359;;;15.4;57.2
77469;BME280;68840;50.272;12.818;2023-05-07T10:26:08;96359;;;15.5;60.6
77469;BME280;68840;50.272;12.818;2023-05-07T10:28:08;96359;;;15.7;62.1
77469;BME280;68840;50.272;12.818;2023-05-07T10:30:14;96361;;;15.8;58.1
77469;BME280;68840;50.272;12.818;2023-05-07T10:32:18;96360;;;16.0;58.4
77469;BME280;68840;50.272;12.818;2023-05-07T10:34:10;96366;;;16.1;55.8
77469;BME280;68840;50.272;12.818;2023-05-07T10:36:07;96367;;;16.2;55.0
77469;BME280;68840;50.272;12.818;2023-05-07T10:38:06;96364;;;16.3;57.0
77469;BME280;68840;50.272;12.818;2023-05-07T10:40:07;96364;;;16.4;54.8
77469;BME280;68840;50.272;12.818;2023-05-07T10:42:09;96362;;;16.5;57.8
77469;BME280;68840;50.272;12.818;2023-05-07T10:44:06;96358;;;16.6;58.0
77469;BME280;68840;50.272;12.818;2023-05-07T10:46:15;96357;;;16.7;57.5
77469;BME280;68840;50.272;12.818;2023-05-07T10:48:08;96354;;;16.8;54.4
77469;BME280;68840;50.272;12.818;2023-05-07T10:50:23;96351;;;16.9;54.7
77469;BME280;68840;50.272;12.818;2023-05-07T10:52:15;96352;;;17.0;55.1
77469;BME280;68840;50.272;12.818;2023-05-07T10:54:18;96350;;;17.0;53.7
77469;BME280;68840;50.272;12.818;2023-05-07T10:56:24;96353;;;17.1;55.6
77469;BME280;68840;50.272;12.818;2023-05-07T10:58:23;96353;;;17.2;54.9
77469;BME280;68840;50.272;12.818;2023-05-07T11:02:07;96349;;;17.3;54.5
77469;BME280;68840;50.272;12.818;2023-05-07T11:04:15;96348;;;17.4;52.4
77469;BME280;68840;50.272;12.818;2023-05-07T11:06:10;96348;;;17.5;53.3
77469;BME280;68840;50.272;12.818;2023-05-07T11:08:06;96347;;;17.5;54.0
77469;BME280;68840;50.272;12.818;2023-05-07T11:10:07;96347;;;17.6;54.2
77469;BME280;68840;50.272;12.818;2023-05-07T11:12:05;96347;;;17.7;53.3
77469;BME280;68840;50.272;12.818;2023-05-07T11:14:06;96347;;;17.7;50.4
77469;BME280;68840;50.272;12.818;2023-05-07T11:16:17;96349;;;17.7;52.3